Terminal Aerodrome Forecast
Issued by NWS

Home | Current Version | Previous Version | Text Only | Print | Product List | Glossary On
Versions: 1 2 3 4 5 6 7 8 9 10 11 12 13 14 15 16 17 18
000
FTUS42 KFFC 310520
TAFRYY
TAF
KRYY 310520Z 3106/0106 10006KT P6SM BKN010 OVC020
     FM310900 09005KT 5SM BR OVC006
     FM311500 09005KT P6SM BKN010
     FM311700 VRB04KT P6SM BKN025
     FM311900 VRB04KT P6SM SCT040
     FM010000 00000KT P6SM SCT045 SCT250
      AMD NOT SKED TIL 311200=

USA.gov is the U.S. government's official web portal to all federal, state and local government web resources and services.